Time;durP1;ratioP1;P1;durP2;ratioP2;P2;SDS_P1;SDS_P2;PMS_P1;PMS_P2;Temp;Humidity;BMP_temperature;BMP_pressure;BME280_temperature;BME280_humidity;BME280_pressure;Samples;Min_cycle;Max_cycle;Signal;HPM_P1;HPM_P2
2023/11/09 00:08:10;;;;;;;5.5;2.8;;;;;;;7.19;75.15;;;;;
2023/11/09 00:18:11;;;;;;;5.5;2.8;;;;;;;7;75.8;;;;;
2023/11/09 00:28:11;;;;;;;5.5;2.8;;;;;;;6.83;75.62;;;;;
2023/11/09 00:39:12;;;;;;;5.4;2.6;;;;;;;6.54;76.89;;;;;
2023/11/09 00:49:10;;;;;;;5.4;2.6;;;;;;;6.29;76.56;;;;;
2023/11/09 01:00:10;;;;;;;5.4;2.6;;;;;;;5.97;78.12;;;;;
2023/11/09 01:10:11;;;;;;;4;2.3;;;;;;;5.81;78.31;;;;;
2023/11/09 01:21:11;;;;;;;4;2.3;;;;;;;5.79;79.73;;;;;
2023/11/09 01:31:11;;;;;;;4;2.3;;;;;;;5.75;79.69;;;;;
2023/11/09 01:42:10;;;;;;;3.9;2.5;;;;;;;5.83;79.62;;;;;
2023/11/09 01:52:11;;;;;;;3.9;2.5;;;;;;;5.85;79.75;;;;;
2023/11/09 02:02:11;;;;;;;3.9;2.5;;;;;;;5.83;79.56;;;;;
2023/11/09 02:12:11;;;;;;;4.5;1.8;;;;;;;5.84;79.29;;;;;
2023/11/09 02:22:11;;;;;;;4.5;1.8;;;;;;;5.84;79.1;;;;;
2023/11/09 02:32:11;;;;;;;4.5;1.8;;;;;;;5.66;79.19;;;;;
2023/11/09 02:43:11;;;;;;;3.9;1.8;;;;;;;5.51;79.22;;;;;
2023/11/09 02:54:10;;;;;;;3.9;1.8;;;;;;;5.42;78.67;;;;;
2023/11/09 03:05:11;;;;;;;3.9;1.8;;;;;;;5.19;78.5;;;;;
2023/11/09 03:15:11;;;;;;;2.3;1.2;;;;;;;4.91;78.58;;;;;
2023/11/09 03:26:11;;;;;;;2.3;1.2;;;;;;;4.65;79.12;;;;;
2023/11/09 03:37:10;;;;;;;1.9;1.3;;;;;;;4.4;79.55;;;;;
2023/11/09 03:47:10;;;;;;;1.9;1.3;;;;;;;4.22;79.94;;;;;
2023/11/09 03:57:11;;;;;;;1.9;1.3;;;;;;;4.21;81.21;;;;;
2023/11/09 04:08:11;;;;;;;2.8;1;;;;;;;4.68;80.88;;;;;
2023/11/09 04:19:11;;;;;;;2.8;1;;;;;;;4.76;80.14;;;;;
2023/11/09 04:29:11;;;;;;;2.8;1;;;;;;;4.57;79.46;;;;;
2023/11/09 04:39:12;;;;;;;4.5;1.8;;;;;;;4.24;80.01;;;;;
2023/11/09 04:49:11;;;;;;;4.5;1.8;;;;;;;3.75;82.14;;;;;
2023/11/09 05:10:11;;;;;;;4.3;2.3;;;;;;;3.2;81.77;;;;;
2023/11/09 05:21:11;;;;;;;4.3;2.3;;;;;;;2.91;82.78;;;;;
2023/11/09 05:31:11;;;;;;;4.3;2.3;;;;;;;2.72;82.43;;;;;
2023/11/09 05:41:11;;;;;;;2.8;1.5;;;;;;;2.56;83.01;;;;;
2023/11/09 05:51:11;;;;;;;2.8;1.5;;;;;;;2.45;83.21;;;;;
2023/11/09 06:01:11;;;;;;;;;;;;;;;;;;;;;
2023/11/09 06:12:10;;;;;;;;;;;;;;;;;;;;;
2023/11/09 06:22:12;;;;;;;;;;;;;;;;;;;;;
2023/11/09 06:33:11;;;;;;;;;;;;;;;;;;;;;
2023/11/09 06:43:12;;;;;;;;;;;;;;;;;;;;;
2023/11/09 06:54:11;;;;;;;6.1;3.7;;;;;;;3.44;85.78;;;;;
2023/11/09 06:56:05;;;;;;;6.1;3.7;;;;;;;3.49;85.77;;;;;
2023/11/09 07:06:06;;;;;;;6.1;3.7;;;;;;;3.79;85.47;;;;;
2023/11/09 07:17:06;;;;;;;9;5.2;;;;;;;4.13;85.35;;;;;
2023/11/09 07:28:07;;;;;;;9;5.2;;;;;;;4.5;84.63;;;;;
2023/11/09 07:38:06;;;;;;;9;5.2;;;;;;;4.95;84.13;;;;;
2023/11/09 07:49:07;;;;;;;6.1;3.1;;;;;;;5.77;82.81;;;;;
2023/11/09 07:59:05;;;;;;;6.1;3.1;;;;;;;6.58;80.47;;;;;
2023/11/09 08:10:06;;;;;;;6.1;3.1;;;;;;;7.48;76.16;;;;;
2023/11/09 08:20:05;;;;;;;3.5;1.6;;;;;;;8.03;74.88;;;;;
2023/11/09 08:31:08;;;;;;;3.5;1.6;;;;;;;8.69;70.99;;;;;
2023/11/09 08:41:06;;;;;;;3.5;1.6;;;;;;;9.18;68.52;;;;;
2023/11/09 08:51:07;;;;;;;2.5;1.3;;;;;;;9.63;63.84;;;;;
2023/11/09 09:02:06;;;;;;;2.5;1.3;;;;;;;10.06;64.1;;;;;
2023/11/09 09:12:05;;;;;;;2.5;1.3;;;;;;;10.47;62.29;;;;;
2023/11/09 09:23:05;;;;;;;3.1;1.4;;;;;;;10.84;60.82;;;;;
2023/11/09 09:33:07;;;;;;;3.1;1.4;;;;;;;11.24;58.19;;;;;
2023/11/09 09:43:07;;;;;;;3.1;1.4;;;;;;;11.55;58.5;;;;;
2023/11/09 09:54:08;;;;;;;3.7;1.7;;;;;;;11.86;55.63;;;;;
2023/11/09 10:05:05;;;;;;;3.7;1.7;;;;;;;12.31;56.36;;;;;
2023/11/09 10:16:05;;;;;;;3.4;1.4;;;;;;;12.74;55.98;;;;;
2023/11/09 10:26:11;;;;;;;3.4;1.4;;;;;;;13.06;52.49;;;;;
2023/11/09 10:36:05;;;;;;;3.4;1.4;;;;;;;13.59;49.85;;;;;
2023/11/09 10:46:08;;;;;;;3.4;1.8;;;;;;;13.73;46.66;;;;;
2023/11/09 10:57:09;;;;;;;3.4;1.8;;;;;;;13.61;50.12;;;;;
2023/11/09 11:08:06;;;;;;;3.4;1.8;;;;;;;13.81;51.65;;;;;
2023/11/09 11:18:05;;;;;;;3.6;1.3;;;;;;;14.07;47.13;;;;;
2023/11/09 11:28:05;;;;;;;3.6;1.3;;;;;;;14.25;48.74;;;;;
2023/11/09 11:39:06;;;;;;;3.6;1.3;;;;;;;14.23;46.84;;;;;
2023/11/09 11:49:06;;;;;;;3;1.3;;;;;;;14.61;48.1;;;;;
2023/11/09 12:00:08;;;;;;;3;1.3;;;;;;;14.44;44.71;;;;;
2023/11/09 12:10:05;;;;;;;3;1.3;;;;;;;14.41;44.63;;;;;
2023/11/09 12:20:10;;;;;;;2.4;1.2;;;;;;;14.6;44.93;;;;;
2023/11/09 12:31:12;;;;;;;2.4;1.2;;;;;;;14.41;46.69;;;;;
2023/11/09 12:41:06;;;;;;;2.4;1.2;;;;;;;14.18;47.84;;;;;
2023/11/09 12:51:06;;;;;;;2.9;1.3;;;;;;;14.15;48.1;;;;;
2023/11/09 13:02:14;;;;;;;2.9;1.3;;;;;;;14.45;49.12;;;;;
2023/11/09 13:12:39;;;;;;;2.9;1.3;;;;;;;14.49;47.61;;;;;
2023/11/09 13:22:05;;;;;;;4.5;1.3;;;;;;;14.53;47.6;;;;;
2023/11/09 13:33:14;;;;;;;4.5;1.3;;;;;;;14.65;48.67;;;;;
2023/11/09 13:44:06;;;;;;;4.5;1.3;;;;;;;14.64;49.75;;;;;
2023/11/09 13:55:22;;;;;;;4.4;1.6;;;;;;;14.08;50.74;;;;;
2023/11/09 14:06:08;;;;;;;4.4;1.6;;;;;;;13.5;51.81;;;;;
2023/11/09 14:16:15;;;;;;;4.1;1.7;;;;;;;12.91;53.89;;;;;
2023/11/09 14:27:05;;;;;;;4.1;1.7;;;;;;;12.07;55.92;;;;;
2023/11/09 14:37:07;;;;;;;4.1;1.7;;;;;;;11.5;56.59;;;;;
2023/11/09 14:47:05;;;;;;;10.6;4.4;;;;;;;10.88;58.81;;;;;
2023/11/09 14:58:10;;;;;;;10.6;4.4;;;;;;;10.18;59.34;;;;;
2023/11/09 15:08:09;;;;;;;10.6;4.4;;;;;;;9.53;61.07;;;;;
2023/11/09 15:19:05;;;;;;;6.4;2.5;;;;;;;8.95;62.81;;;;;
2023/11/09 15:29:05;;;;;;;6.4;2.5;;;;;;;8.4;65.55;;;;;
2023/11/09 15:40:09;;;;;;;6.4;2.5;;;;;;;7.92;66.81;;;;;
2023/11/09 15:50:05;;;;;;;15.1;6.5;;;;;;;7.48;67.01;;;;;
2023/11/09 16:01:06;;;;;;;15.1;6.5;;;;;;;7.19;66.9;;;;;
2023/11/09 16:12:05;;;;;;;15.1;6.5;;;;;;;7.03;67.57;;;;;
2023/11/09 16:23:06;;;;;;;4.9;2.4;;;;;;;6.89;69.27;;;;;
2023/11/09 16:34:06;;;;;;;4.9;2.4;;;;;;;6.68;70.34;;;;;
2023/11/09 16:44:05;;;;;;;4.9;2.4;;;;;;;6.61;70.34;;;;;
2023/11/09 16:55:06;;;;;;;10.1;4.1;;;;;;;6.64;70.22;;;;;
2023/11/09 17:05:06;;;;;;;10.1;4.1;;;;;;;6.65;69.43;;;;;
2023/11/09 17:16:05;;;;;;;8.9;4.5;;;;;;;6.8;68.8;;;;;
2023/11/09 17:27:06;;;;;;;8.9;4.5;;;;;;;6.88;68.72;;;;;
2023/11/09 17:37:05;;;;;;;8.9;4.5;;;;;;;6.68;68.67;;;;;
2023/11/09 17:47:06;;;;;;;11.9;4.2;;;;;;;6.65;69.04;;;;;
2023/11/09 17:57:06;;;;;;;11.9;4.2;;;;;;;6.49;69.73;;;;;
2023/11/09 18:08:06;;;;;;;11.9;4.2;;;;;;;6.35;69.83;;;;;
2023/11/09 18:19:05;;;;;;;13.6;6.9;;;;;;;6.13;71.15;;;;;
2023/11/09 18:29:05;;;;;;;13.6;6.9;;;;;;;5.99;71.42;;;;;
2023/11/09 18:40:06;;;;;;;13.6;6.9;;;;;;;5.78;72.64;;;;;
2023/11/09 18:50:06;;;;;;;15;6.7;;;;;;;5.71;73.45;;;;;
2023/11/09 19:01:05;;;;;;;15;6.7;;;;;;;5.67;73.73;;;;;
2023/11/09 19:11:05;;;;;;;15;6.7;;;;;;;5.75;73.76;;;;;
2023/11/09 19:22:05;;;;;;;17.2;10.1;;;;;;;5.78;72.53;;;;;
2023/11/09 19:33:05;;;;;;;17.2;10.1;;;;;;;6.24;72.42;;;;;
2023/11/09 19:43:06;;;;;;;17.2;10.1;;;;;;;6.38;71.75;;;;;
2023/11/09 19:54:07;;;;;;;10.7;5.7;;;;;;;6.39;71.25;;;;;
2023/11/09 20:05:06;;;;;;;10.7;5.7;;;;;;;6.26;71.96;;;;;
2023/11/09 20:16:06;;;;;;;9.2;3.4;;;;;;;6.94;71.63;;;;;
2023/11/09 20:27:05;;;;;;;9.2;3.4;;;;;;;7.13;69.89;;;;;
2023/11/09 20:38:07;;;;;;;9.2;3.4;;;;;;;6.73;70.73;;;;;
2023/11/09 20:48:06;;;;;;;6.4;3;;;;;;;6.56;71.85;;;;;
2023/11/09 20:58:07;;;;;;;6.4;3;;;;;;;6.55;71.8;;;;;
2023/11/09 21:09:05;;;;;;;6.4;3;;;;;;;6.48;72.48;;;;;
2023/11/09 21:20:06;;;;;;;5.9;3;;;;;;;6.49;73.73;;;;;
2023/11/09 21:31:05;;;;;;;5.9;3;;;;;;;6.51;74.56;;;;;
2023/11/09 21:41:05;;;;;;;5.9;3;;;;;;;6.6;75.13;;;;;
2023/11/09 21:51:06;;;;;;;8.6;4.4;;;;;;;7.18;73.72;;;;;
2023/11/09 22:02:06;;;;;;;8.6;4.4;;;;;;;8.09;69.61;;;;;
2023/11/09 22:12:08;;;;;;;8.6;4.4;;;;;;;8.49;67.66;;;;;
2023/11/09 22:23:06;;;;;;;5.5;2.9;;;;;;;8.7;66.4;;;;;
2023/11/09 22:33:05;;;;;;;5.5;2.9;;;;;;;8.73;66.41;;;;;
2023/11/09 22:43:06;;;;;;;5.5;2.9;;;;;;;8.78;66.26;;;;;
2023/11/09 22:53:05;;;;;;;9.5;4.3;;;;;;;8.9;64.85;;;;;
2023/11/09 23:04:06;;;;;;;9.5;4.3;;;;;;;8.88;65.17;;;;;
2023/11/09 23:15:05;;;;;;;7.7;3.5;;;;;;;9.11;65.59;;;;;
2023/11/09 23:26:05;;;;;;;7.7;3.5;;;;;;;9.42;62.66;;;;;
2023/11/09 23:37:05;;;;;;;7.7;3.5;;;;;;;9.45;62.19;;;;;
2023/11/09 23:47:07;;;;;;;6.7;2.8;;;;;;;9.49;63;;;;;
2023/11/09 23:58:07;;;;;;;6.7;2.8;;;;;;;9.39;63.93;;;;;
